Florence, OR

12:47 AM PDT on May 29, 2015 (GMT -0700)
Newport Municipal | | Change Station
CLOSE
Current Station
Airport
Location: Newport Airport,
Elevation: 157 ft
Nearby Weather Stations

Elev 157 ft 44.58 °N, 124.06 °W | Updated 12 minutes ago

Mostly Cloudy
Mostly Cloudy
52 °F
Feels Like 52 °F
N
6
Wind Variable Wind from NNW

Today
High -- | Low -- °F
--% Chance of Precip.
Yesterday
High -- | Low -- °F
Precip. -- in
5:38 AM 8:49 PM
Waxing Gibbous, 82% visible
Pressure 30.09 in
Visibility 7.0 miles
Clouds Overcast 500 ft
Dew Point 50 °F
Humidity 94%
Rainfall 0.00 in
Snow Depth Not available.
UV 0 out of 12
Pollen 7.30 out of 12
Air Quality Not available.
Flu Activity No Activity
METAR KONP 290735Z AUTO 34005KT 7SM OVC005 11/10 A3009 RMK AO2

More Conditions Fewer Conditions

Pressure 30.09 in
Visibility 7.0 miles
Clouds Overcast 500 ft
Dew Point 50 °F
Humidity 94%
Rainfall 0.00 in
Snow Depth Not available.
UV 0 out of 12
Pollen 7.30 out of 12
Air Quality Not available.
Flu Activity No Activity
METAR KONP 290735Z AUTO 34005KT 7SM OVC005 11/10 A3009 RMK AO2

More Conditions Fewer Conditions

10-Day Weather Forecast

Almanac

Astronomy

May. 29, 2015 Rise Set
Actual Time
Civil Twilight
Nautical Twilight
Astronomical Twilight
Moon
Length of Visible Light
Length of Day
Tomorrow will be .
, % of the Moon is Illuminated

Today's Extremes

State Highs State Lows

Community

WunderPhotos

Upload Photos

1,825,221 photos uploaded!

WunderBlogs® & News

Nearby

Air Quality

  Air Quality AQ Index Pollutant
Not available.

Snow Depth

Station Depth Elevation

Earthquake Activity

City Distance Mag. Time & Date
Minimum magnitude displayed is 2.5.

Coastal Water Temperatures

Place Temperature

Stations

Nearby Weather Stations

Station Location Temp. Windchill Dew Point Humidity Wind Precip. Elev Updated Type